sensor_id;sensor_type;location;lat;lon;timestamp;temperature;humidity
18408;DHT22;9330;52.210;21.174;2023-10-13T00:02:03;7.40;99.90
18408;DHT22;9330;52.210;21.174;2023-10-13T00:04:31;7.30;99.90
18408;DHT22;9330;52.210;21.174;2023-10-13T00:07:01;7.20;99.90
18408;DHT22;9330;52.210;21.174;2023-10-13T00:09:30;7.30;99.90
18408;DHT22;9330;52.210;21.174;2023-10-13T00:11:59;7.20;99.90
18408;DHT22;9330;52.210;21.174;2023-10-13T00:14:27;7.20;99.90
18408;DHT22;9330;52.210;21.174;2023-10-13T00:16:59;7.20;99.90
18408;DHT22;9330;52.210;21.174;2023-10-13T00:19:31;7.20;99.90
18408;DHT22;9330;52.210;21.174;2023-10-13T00:22:05;7.10;99.90
18408;DHT22;9330;52.210;21.174;2023-10-13T00:24:39;7.20;99.90
18408;DHT22;9330;52.210;21.174;2023-10-13T00:27:11;7.10;99.90
18408;DHT22;9330;52.210;21.174;2023-10-13T00:29:55;7.10;99.90
18408;DHT22;9330;52.210;21.174;2023-10-13T00:32:41;7.10;99.90
18408;DHT22;9330;52.210;21.174;2023-10-13T00:35:09;7.00;99.90
18408;DHT22;9330;52.210;21.174;2023-10-13T00:37:39;7.00;99.90
18408;DHT22;9330;52.210;21.174;2023-10-13T00:40:10;6.90;99.90
18408;DHT22;9330;52.210;21.174;2023-10-13T00:42:52;7.00;99.90
18408;DHT22;9330;52.210;21.174;2023-10-13T00:45:22;6.90;99.90
18408;DHT22;9330;52.210;21.174;2023-10-13T00:47:49;6.90;99.90
18408;DHT22;9330;52.210;21.174;2023-10-13T00:50:22;6.90;99.90
18408;DHT22;9330;52.210;21.174;2023-10-13T00:52:50;6.90;99.90
18408;DHT22;9330;52.210;21.174;2023-10-13T00:55:19;6.90;99.90
18408;DHT22;9330;52.210;21.174;2023-10-13T00:57:51;6.80;99.90
18408;DHT22;9330;52.210;21.174;2023-10-13T01:00:21;6.80;99.90
18408;DHT22;9330;52.210;21.174;2023-10-13T01:02:52;6.70;99.90
18408;DHT22;9330;52.210;21.174;2023-10-13T01:05:21;6.70;99.90
18408;DHT22;9330;52.210;21.174;2023-10-13T01:07:49;6.70;99.90
18408;DHT22;9330;52.210;21.174;2023-10-13T01:10:18;6.70;99.90
18408;DHT22;9330;52.210;21.174;2023-10-13T01:12:45;6.70;99.90
18408;DHT22;9330;52.210;21.174;2023-10-13T01:15:13;6.60;99.90
18408;DHT22;9330;52.210;21.174;2023-10-13T01:17:47;6.70;99.90
18408;DHT22;9330;52.210;21.174;2023-10-13T01:20:15;6.60;99.90
18408;DHT22;9330;52.210;21.174;2023-10-13T01:22:46;6.60;99.90
18408;DHT22;9330;52.210;21.174;2023-10-13T01:25:22;6.50;99.90
18408;DHT22;9330;52.210;21.174;2023-10-13T01:27:51;6.50;99.90
18408;DHT22;9330;52.210;21.174;2023-10-13T01:30:18;6.50;99.90
18408;DHT22;9330;52.210;21.174;2023-10-13T01:32:48;6.50;99.90
18408;DHT22;9330;52.210;21.174;2023-10-13T01:35:16;6.50;99.90
18408;DHT22;9330;52.210;21.174;2023-10-13T01:37:44;6.40;99.90
18408;DHT22;9330;52.210;21.174;2023-10-13T01:40:11;6.40;99.90
18408;DHT22;9330;52.210;21.174;2023-10-13T01:42:39;6.40;99.90
18408;DHT22;9330;52.210;21.174;2023-10-13T01:45:06;6.30;99.90
18408;DHT22;9330;52.210;21.174;2023-10-13T01:47:32;6.30;99.90
18408;DHT22;9330;52.210;21.174;2023-10-13T01:49:59;6.30;99.90
18408;DHT22;9330;52.210;21.174;2023-10-13T01:52:38;6.30;99.90
18408;DHT22;9330;52.210;21.174;2023-10-13T01:55:08;6.20;99.90
18408;DHT22;9330;52.210;21.174;2023-10-13T01:57:36;6.40;99.90
18408;DHT22;9330;52.210;21.174;2023-10-13T02:00:05;6.20;99.90
18408;DHT22;9330;52.210;21.174;2023-10-13T02:02:37;6.20;99.90
18408;DHT22;9330;52.210;21.174;2023-10-13T02:05:10;6.20;99.90
18408;DHT22;9330;52.210;21.174;2023-10-13T02:07:37;6.20;99.90
18408;DHT22;9330;52.210;21.174;2023-10-13T02:10:05;6.20;99.90
18408;DHT22;9330;52.210;21.174;2023-10-13T02:12:31;6.20;99.90
18408;DHT22;9330;52.210;21.174;2023-10-13T02:15:10;6.10;99.90
18408;DHT22;9330;52.210;21.174;2023-10-13T02:17:38;6.10;99.90
18408;DHT22;9330;52.210;21.174;2023-10-13T02:20:09;6.10;99.90
18408;DHT22;9330;52.210;21.174;2023-10-13T02:22:40;6.10;99.90
18408;DHT22;9330;52.210;21.174;2023-10-13T02:25:15;6.00;99.90
18408;DHT22;9330;52.210;21.174;2023-10-13T02:27:43;6.00;99.90
18408;DHT22;9330;52.210;21.174;2023-10-13T02:30:15;6.00;99.90
18408;DHT22;9330;52.210;21.174;2023-10-13T02:32:41;5.90;99.90
18408;DHT22;9330;52.210;21.174;2023-10-13T02:35:09;5.90;99.90
18408;DHT22;9330;52.210;21.174;2023-10-13T02:37:41;5.90;99.90
18408;DHT22;9330;52.210;21.174;2023-10-13T02:40:11;5.90;99.90
18408;DHT22;9330;52.210;21.174;2023-10-13T02:42:36;6.00;99.90
18408;DHT22;9330;52.210;21.174;2023-10-13T02:45:05;6.00;99.90
18408;DHT22;9330;52.210;21.174;2023-10-13T02:47:32;6.00;99.90
18408;DHT22;9330;52.210;21.174;2023-10-13T02:49:59;6.00;99.90
18408;DHT22;9330;52.210;21.174;2023-10-13T02:52:26;5.90;99.90
18408;DHT22;9330;52.210;21.174;2023-10-13T02:54:53;5.90;99.90
18408;DHT22;9330;52.210;21.174;2023-10-13T02:57:19;5.80;99.90
18408;DHT22;9330;52.210;21.174;2023-10-13T02:59:46;5.80;99.90
18408;DHT22;9330;52.210;21.174;2023-10-13T03:02:12;5.80;99.90
18408;DHT22;9330;52.210;21.174;2023-10-13T03:04:51;6.00;99.90
18408;DHT22;9330;52.210;21.174;2023-10-13T03:07:17;5.80;99.90
18408;DHT22;9330;52.210;21.174;2023-10-13T03:09:48;5.80;99.90
18408;DHT22;9330;52.210;21.174;2023-10-13T03:12:16;5.80;99.90
18408;DHT22;9330;52.210;21.174;2023-10-13T03:14:43;5.80;99.90
18408;DHT22;9330;52.210;21.174;2023-10-13T03:17:13;5.70;99.90
18408;DHT22;9330;52.210;21.174;2023-10-13T03:19:42;5.70;99.90
18408;DHT22;9330;52.210;21.174;2023-10-13T03:22:13;5.70;99.90
18408;DHT22;9330;52.210;21.174;2023-10-13T03:24:42;5.60;99.90
18408;DHT22;9330;52.210;21.174;2023-10-13T03:27:11;5.60;99.90
18408;DHT22;9330;52.210;21.174;2023-10-13T03:29:41;5.60;99.90
18408;DHT22;9330;52.210;21.174;2023-10-13T03:32:09;5.70;99.90
18408;DHT22;9330;52.210;21.174;2023-10-13T03:34:37;5.60;99.90
18408;DHT22;9330;52.210;21.174;2023-10-13T03:37:07;5.50;99.90
18408;DHT22;9330;52.210;21.174;2023-10-13T03:39:44;5.50;99.90
18408;DHT22;9330;52.210;21.174;2023-10-13T03:42:12;5.60;99.90
18408;DHT22;9330;52.210;21.174;2023-10-13T03:44:44;5.60;99.90
18408;DHT22;9330;52.210;21.174;2023-10-13T03:47:12;5.50;99.90
18408;DHT22;9330;52.210;21.174;2023-10-13T03:49:52;5.60;99.90
18408;DHT22;9330;52.210;21.174;2023-10-13T03:52:39;5.60;99.90
18408;DHT22;9330;52.210;21.174;2023-10-13T03:55:08;5.60;99.90
18408;DHT22;9330;52.210;21.174;2023-10-13T03:57:42;5.60;99.90
18408;DHT22;9330;52.210;21.174;2023-10-13T04:00:12;5.60;99.90
18408;DHT22;9330;52.210;21.174;2023-10-13T04:02:47;5.60;99.90
18408;DHT22;9330;52.210;21.174;2023-10-13T04:05:32;5.60;99.90
18408;DHT22;9330;52.210;21.174;2023-10-13T04:08:05;5.50;99.90
18408;DHT22;9330;52.210;21.174;2023-10-13T04:10:52;5.60;99.90
18408;DHT22;9330;52.210;21.174;2023-10-13T04:13:37;5.60;99.90
18408;DHT22;9330;52.210;21.174;2023-10-13T04:16:21;5.60;99.90
18408;DHT22;9330;52.210;21.174;2023-10-13T04:19:01;5.60;99.90
18408;DHT22;9330;52.210;21.174;2023-10-13T04:21:35;5.80;99.90
18408;DHT22;9330;52.210;21.174;2023-10-13T04:24:23;5.60;99.90
18408;DHT22;9330;52.210;21.174;2023-10-13T04:27:06;5.60;99.90
18408;DHT22;9330;52.210;21.174;2023-10-13T04:29:55;5.50;99.90
18408;DHT22;9330;52.210;21.174;2023-10-13T04:32:36;5.50;99.90
18408;DHT22;9330;52.210;21.174;2023-10-13T04:35:07;5.60;99.90
18408;DHT22;9330;52.210;21.174;2023-10-13T04:37:43;5.60;99.90
18408;DHT22;9330;52.210;21.174;2023-10-13T04:40:27;5.60;99.90
18408;DHT22;9330;52.210;21.174;2023-10-13T04:43:02;5.50;99.90
18408;DHT22;9330;52.210;21.174;2023-10-13T04:45:50;5.50;99.90
18408;DHT22;9330;52.210;21.174;2023-10-13T04:48:19;5.50;99.90
18408;DHT22;9330;52.210;21.174;2023-10-13T04:51:04;5.60;99.90
18408;DHT22;9330;52.210;21.174;2023-10-13T04:53:47;5.60;99.90
18408;DHT22;9330;52.210;21.174;2023-10-13T04:56:36;5.70;99.90
18408;DHT22;9330;52.210;21.174;2023-10-13T04:59:22;5.60;99.90
18408;DHT22;9330;52.210;21.174;2023-10-13T05:02:03;5.60;99.90
18408;DHT22;9330;52.210;21.174;2023-10-13T05:05:08;5.60;99.90
18408;DHT22;9330;52.210;21.174;2023-10-13T05:08:08;5.60;99.90
18408;DHT22;9330;52.210;21.174;2023-10-13T05:10:53;5.60;99.90
18408;DHT22;9330;52.210;21.174;2023-10-13T05:13:37;5.60;99.90
18408;DHT22;9330;52.210;21.174;2023-10-13T05:16:22;5.60;99.90
18408;DHT22;9330;52.210;21.174;2023-10-13T05:19:03;5.60;99.90
18408;DHT22;9330;52.210;21.174;2023-10-13T05:21:47;5.60;99.90
18408;DHT22;9330;52.210;21.174;2023-10-13T05:24:32;5.60;99.90
18408;DHT22;9330;52.210;21.174;2023-10-13T05:27:16;5.60;99.90
18408;DHT22;9330;52.210;21.174;2023-10-13T05:30:00;5.70;99.90
18408;DHT22;9330;52.210;21.174;2023-10-13T05:32:45;5.80;99.90
18408;DHT22;9330;52.210;21.174;2023-10-13T05:35:31;5.80;99.90
18408;DHT22;9330;52.210;21.174;2023-10-13T05:38:16;5.90;99.90
18408;DHT22;9330;52.210;21.174;2023-10-13T05:41:02;5.90;99.90
18408;DHT22;9330;52.210;21.174;2023-10-13T05:43:47;6.00;99.90
18408;DHT22;9330;52.210;21.174;2023-10-13T05:46:32;6.10;99.90
18408;DHT22;9330;52.210;21.174;2023-10-13T05:49:16;6.10;99.90
18408;DHT22;9330;52.210;21.174;2023-10-13T05:52:06;6.00;99.90
18408;DHT22;9330;52.210;21.174;2023-10-13T05:55:06;6.10;99.90
18408;DHT22;9330;52.210;21.174;2023-10-13T05:57:50;6.10;99.90
18408;DHT22;9330;52.210;21.174;2023-10-13T06:00:39;6.20;99.90
18408;DHT22;9330;52.210;21.174;2023-10-13T06:03:24;6.20;99.90
18408;DHT22;9330;52.210;21.174;2023-10-13T06:06:09;6.20;99.90
18408;DHT22;9330;52.210;21.174;2023-10-13T06:08:53;6.30;99.90
18408;DHT22;9330;52.210;21.174;2023-10-13T06:11:37;6.40;99.90
18408;DHT22;9330;52.210;21.174;2023-10-13T06:14:21;6.40;99.90
18408;DHT22;9330;52.210;21.174;2023-10-13T06:17:05;6.50;99.90
18408;DHT22;9330;52.210;21.174;2023-10-13T06:19:50;6.60;99.90
18408;DHT22;9330;52.210;21.174;2023-10-13T06:22:35;6.90;99.90
18408;DHT22;9330;52.210;21.174;2023-10-13T06:25:20;6.90;99.90
18408;DHT22;9330;52.210;21.174;2023-10-13T06:28:04;6.90;99.90
18408;DHT22;9330;52.210;21.174;2023-10-13T06:30:57;7.10;99.90
18408;DHT22;9330;52.210;21.174;2023-10-13T06:33:24;7.20;99.90
18408;DHT22;9330;52.210;21.174;2023-10-13T06:35:57;7.40;99.90
18408;DHT22;9330;52.210;21.174;2023-10-13T06:38:26;7.50;99.90
18408;DHT22;9330;52.210;21.174;2023-10-13T06:40:57;7.70;99.90
18408;DHT22;9330;52.210;21.174;2023-10-13T06:43:23;7.90;99.90
18408;DHT22;9330;52.210;21.174;2023-10-13T06:45:50;7.90;99.90
18408;DHT22;9330;52.210;21.174;2023-10-13T06:48:23;8.10;99.90
18408;DHT22;9330;52.210;21.174;2023-10-13T06:50:50;8.20;99.90
18408;DHT22;9330;52.210;21.174;2023-10-13T06:53:21;8.40;99.90
18408;DHT22;9330;52.210;21.174;2023-10-13T06:55:51;8.50;99.90
18408;DHT22;9330;52.210;21.174;2023-10-13T06:58:21;8.70;99.90
18408;DHT22;9330;52.210;21.174;2023-10-13T07:00:49;8.90;99.90
18408;DHT22;9330;52.210;21.174;2023-10-13T07:03:21;9.10;99.90
18408;DHT22;9330;52.210;21.174;2023-10-13T07:05:48;9.20;99.90
18408;DHT22;9330;52.210;21.174;2023-10-13T07:08:16;9.30;99.90
18408;DHT22;9330;52.210;21.174;2023-10-13T07:10:51;9.30;99.90
18408;DHT22;9330;52.210;21.174;2023-10-13T07:13:27;9.50;99.90
18408;DHT22;9330;52.210;21.174;2023-10-13T07:15:54;9.50;99.90
18408;DHT22;9330;52.210;21.174;2023-10-13T07:18:26;9.50;99.90
18408;DHT22;9330;52.210;21.174;2023-10-13T07:21:01;9.70;99.90
18408;DHT22;9330;52.210;21.174;2023-10-13T07:23:35;9.70;99.90
18408;DHT22;9330;52.210;21.174;2023-10-13T07:26:05;9.70;99.90
18408;DHT22;9330;52.210;21.174;2023-10-13T07:28:34;9.80;99.90
18408;DHT22;9330;52.210;21.174;2023-10-13T07:31:02;9.90;99.90
18408;DHT22;9330;52.210;21.174;2023-10-13T07:33:38;9.90;99.90
18408;DHT22;9330;52.210;21.174;2023-10-13T07:36:08;10.00;99.90
18408;DHT22;9330;52.210;21.174;2023-10-13T07:38:43;10.00;99.90
18408;DHT22;9330;52.210;21.174;2023-10-13T07:41:15;10.00;99.90
18408;DHT22;9330;52.210;21.174;2023-10-13T07:43:43;10.20;99.90
18408;DHT22;9330;52.210;21.174;2023-10-13T07:46:11;10.30;99.90
18408;DHT22;9330;52.210;21.174;2023-10-13T07:48:38;10.20;99.90
18408;DHT22;9330;52.210;21.174;2023-10-13T07:51:08;10.30;99.90
18408;DHT22;9330;52.210;21.174;2023-10-13T07:53:36;10.20;99.90
18408;DHT22;9330;52.210;21.174;2023-10-13T07:56:06;10.30;99.90
18408;DHT22;9330;52.210;21.174;2023-10-13T07:58:35;10.40;99.90
18408;DHT22;9330;52.210;21.174;2023-10-13T08:01:13;10.50;99.90
18408;DHT22;9330;52.210;21.174;2023-10-13T08:03:44;10.60;99.90
18408;DHT22;9330;52.210;21.174;2023-10-13T08:06:12;10.60;99.90
18408;DHT22;9330;52.210;21.174;2023-10-13T08:08:46;10.70;99.90
18408;DHT22;9330;52.210;21.174;2023-10-13T08:11:16;10.70;99.90
18408;DHT22;9330;52.210;21.174;2023-10-13T08:13:54;10.60;99.90
18408;DHT22;9330;52.210;21.174;2023-10-13T08:16:25;11.00;99.90
18408;DHT22;9330;52.210;21.174;2023-10-13T08:19:05;11.00;99.90
18408;DHT22;9330;52.210;21.174;2023-10-13T08:21:33;11.00;99.90
18408;DHT22;9330;52.210;21.174;2023-10-13T08:24:00;11.10;99.90
18408;DHT22;9330;52.210;21.174;2023-10-13T08:26:32;11.20;99.90
18408;DHT22;9330;52.210;21.174;2023-10-13T08:29:14;11.30;99.90
18408;DHT22;9330;52.210;21.174;2023-10-13T08:31:58;11.40;99.90
18408;DHT22;9330;52.210;21.174;2023-10-13T08:34:42;11.40;99.90
18408;DHT22;9330;52.210;21.174;2023-10-13T08:37:24;11.40;99.90
18408;DHT22;9330;52.210;21.174;2023-10-13T08:39:57;11.50;99.90
18408;DHT22;9330;52.210;21.174;2023-10-13T08:42:40;11.70;99.90
18408;DHT22;9330;52.210;21.174;2023-10-13T08:45:22;11.60;99.90
18408;DHT22;9330;52.210;21.174;2023-10-13T08:48:17;11.80;99.90
18408;DHT22;9330;52.210;21.174;2023-10-13T08:50:45;11.70;99.90
18408;DHT22;9330;52.210;21.174;2023-10-13T08:53:19;11.80;99.90
18408;DHT22;9330;52.210;21.174;2023-10-13T08:55:54;11.90;99.90
18408;DHT22;9330;52.210;21.174;2023-10-13T08:58:30;11.90;99.90
18408;DHT22;9330;52.210;21.174;2023-10-13T09:01:12;11.90;99.90
18408;DHT22;9330;52.210;21.174;2023-10-13T09:03:59;12.10;99.90
18408;DHT22;9330;52.210;21.174;2023-10-13T09:06:48;11.90;99.90
18408;DHT22;9330;52.210;21.174;2023-10-13T09:09:26;12.10;99.90
18408;DHT22;9330;52.210;21.174;2023-10-13T09:11:53;12.00;99.90
18408;DHT22;9330;52.210;21.174;2023-10-13T09:14:33;12.00;99.90
18408;DHT22;9330;52.210;21.174;2023-10-13T09:17:06;12.20;99.90
18408;DHT22;9330;52.210;21.174;2023-10-13T09:19:45;12.30;99.90
18408;DHT22;9330;52.210;21.174;2023-10-13T09:22:22;12.50;99.90
18408;DHT22;9330;52.210;21.174;2023-10-13T09:25:01;12.60;99.90
18408;DHT22;9330;52.210;21.174;2023-10-13T09:27:29;12.60;99.90
18408;DHT22;9330;52.210;21.174;2023-10-13T09:29:58;12.60;99.90
18408;DHT22;9330;52.210;21.174;2023-10-13T09:32:33;12.70;99.90
18408;DHT22;9330;52.210;21.174;2023-10-13T09:35:16;12.80;99.90
18408;DHT22;9330;52.210;21.174;2023-10-13T09:37:43;13.00;99.90
18408;DHT22;9330;52.210;21.174;2023-10-13T09:40:14;12.90;99.90
18408;DHT22;9330;52.210;21.174;2023-10-13T09:42:51;13.10;99.90
18408;DHT22;9330;52.210;21.174;2023-10-13T09:45:18;13.10;99.90
18408;DHT22;9330;52.210;21.174;2023-10-13T09:47:47;13.20;99.90
18408;DHT22;9330;52.210;21.174;2023-10-13T09:50:19;13.30;99.90
18408;DHT22;9330;52.210;21.174;2023-10-13T09:52:50;13.40;99.90
18408;DHT22;9330;52.210;21.174;2023-10-13T09:55:22;13.50;99.90
18408;DHT22;9330;52.210;21.174;2023-10-13T09:57:56;13.50;99.90
18408;DHT22;9330;52.210;21.174;2023-10-13T10:00:28;13.60;99.90
18408;DHT22;9330;52.210;21.174;2023-10-13T10:03:13;13.70;99.90
18408;DHT22;9330;52.210;21.174;2023-10-13T10:05:59;13.80;99.90
18408;DHT22;9330;52.210;21.174;2023-10-13T10:08:29;13.90;99.90
18408;DHT22;9330;52.210;21.174;2023-10-13T10:14:16;14.10;99.90
18408;DHT22;9330;52.210;21.174;2023-10-13T10:16:53;14.10;99.90
18408;DHT22;9330;52.210;21.174;2023-10-13T10:19:26;14.10;99.90
18408;DHT22;9330;52.210;21.174;2023-10-13T10:22:01;14.10;99.90
18408;DHT22;9330;52.210;21.174;2023-10-13T10:24:35;14.20;99.90
18408;DHT22;9330;52.210;21.174;2023-10-13T10:27:03;14.20;99.90
18408;DHT22;9330;52.210;21.174;2023-10-13T10:29:31;14.20;99.90
18408;DHT22;9330;52.210;21.174;2023-10-13T10:31:58;14.30;99.90
18408;DHT22;9330;52.210;21.174;2023-10-13T10:34:31;14.40;99.90
18408;DHT22;9330;52.210;21.174;2023-10-13T10:36:59;14.50;99.90
18408;DHT22;9330;52.210;21.174;2023-10-13T10:39:33;14.60;99.90
18408;DHT22;9330;52.210;21.174;2023-10-13T10:42:11;14.70;99.90
18408;DHT22;9330;52.210;21.174;2023-10-13T10:44:43;14.80;99.90
18408;DHT22;9330;52.210;21.174;2023-10-13T10:47:10;14.80;99.90
18408;DHT22;9330;52.210;21.174;2023-10-13T10:49:46;14.90;99.90
18408;DHT22;9330;52.210;21.174;2023-10-13T10:52:17;15.00;99.90
18408;DHT22;9330;52.210;21.174;2023-10-13T10:54:57;15.10;99.90
18408;DHT22;9330;52.210;21.174;2023-10-13T10:57:24;15.20;99.90
18408;DHT22;9330;52.210;21.174;2023-10-13T10:59:54;15.20;99.90
18408;DHT22;9330;52.210;21.174;2023-10-13T11:02:36;15.30;99.90
18408;DHT22;9330;52.210;21.174;2023-10-13T11:05:06;15.40;99.90
18408;DHT22;9330;52.210;21.174;2023-10-13T11:07:35;15.50;99.90
18408;DHT22;9330;52.210;21.174;2023-10-13T11:10:12;15.50;99.90
18408;DHT22;9330;52.210;21.174;2023-10-13T11:12:54;15.60;99.90
18408;DHT22;9330;52.210;21.174;2023-10-13T11:15:21;15.70;99.90
18408;DHT22;9330;52.210;21.174;2023-10-13T11:17:48;15.70;99.90
18408;DHT22;9330;52.210;21.174;2023-10-13T11:20:21;15.80;99.90
18408;DHT22;9330;52.210;21.174;2023-10-13T11:22:58;15.80;99.90
18408;DHT22;9330;52.210;21.174;2023-10-13T11:25:26;15.90;99.90
18408;DHT22;9330;52.210;21.174;2023-10-13T11:28:10;16.00;99.90
18408;DHT22;9330;52.210;21.174;2023-10-13T11:30:43;16.10;99.90
18408;DHT22;9330;52.210;21.174;2023-10-13T11:33:15;16.20;99.90
18408;DHT22;9330;52.210;21.174;2023-10-13T11:35:45;16.20;99.90
18408;DHT22;9330;52.210;21.174;2023-10-13T11:38:23;16.20;99.90
18408;DHT22;9330;52.210;21.174;2023-10-13T11:40:54;16.40;99.90
18408;DHT22;9330;52.210;21.174;2023-10-13T11:43:35;16.60;99.90
18408;DHT22;9330;52.210;21.174;2023-10-13T11:46:18;16.80;99.90
18408;DHT22;9330;52.210;21.174;2023-10-13T11:49:07;16.90;99.90
18408;DHT22;9330;52.210;21.174;2023-10-13T11:51:45;16.90;99.90
18408;DHT22;9330;52.210;21.174;2023-10-13T11:54:13;17.20;99.90
18408;DHT22;9330;52.210;21.174;2023-10-13T11:56:40;17.20;99.90
18408;DHT22;9330;52.210;21.174;2023-10-13T11:59:07;17.20;99.90
18408;DHT22;9330;52.210;21.174;2023-10-13T12:01:42;17.30;99.90
18408;DHT22;9330;52.210;21.174;2023-10-13T12:04:27;17.20;99.90
18408;DHT22;9330;52.210;21.174;2023-10-13T12:07:07;17.30;99.90
18408;DHT22;9330;52.210;21.174;2023-10-13T12:09:46;17.30;99.90
18408;DHT22;9330;52.210;21.174;2023-10-13T12:12:29;17.30;99.90
18408;DHT22;9330;52.210;21.174;2023-10-13T12:14:57;17.30;99.90
18408;DHT22;9330;52.210;21.174;2023-10-13T12:17:34;17.30;99.90
18408;DHT22;9330;52.210;21.174;2023-10-13T12:20:02;17.30;99.90
18408;DHT22;9330;52.210;21.174;2023-10-13T12:22:32;17.20;99.90
18408;DHT22;9330;52.210;21.174;2023-10-13T12:25:05;17.10;99.90
18408;DHT22;9330;52.210;21.174;2023-10-13T12:27:44;17.00;99.90
18408;DHT22;9330;52.210;21.174;2023-10-13T12:30:14;17.10;99.90
18408;DHT22;9330;52.210;21.174;2023-10-13T12:32:48;17.10;99.90
18408;DHT22;9330;52.210;21.174;2023-10-13T12:35:24;17.20;99.90
18408;DHT22;9330;52.210;21.174;2023-10-13T12:37:57;17.10;99.90
18408;DHT22;9330;52.210;21.174;2023-10-13T12:40:31;17.10;99.90
18408;DHT22;9330;52.210;21.174;2023-10-13T12:43:15;17.30;99.90
18408;DHT22;9330;52.210;21.174;2023-10-13T12:45:59;17.30;99.90
18408;DHT22;9330;52.210;21.174;2023-10-13T12:48:43;17.30;99.90
18408;DHT22;9330;52.210;21.174;2023-10-13T12:51:29;17.30;99.90
18408;DHT22;9330;52.210;21.174;2023-10-13T12:54:17;17.30;99.90
18408;DHT22;9330;52.210;21.174;2023-10-13T12:56:49;17.30;99.90
18408;DHT22;9330;52.210;21.174;2023-10-13T12:59:22;17.30;99.90
18408;DHT22;9330;52.210;21.174;2023-10-13T13:01:52;17.30;99.90
18408;DHT22;9330;52.210;21.174;2023-10-13T13:04:19;17.30;99.90
18408;DHT22;9330;52.210;21.174;2023-10-13T13:06:46;17.20;99.90
18408;DHT22;9330;52.210;21.174;2023-10-13T13:09:13;17.20;99.90
18408;DHT22;9330;52.210;21.174;2023-10-13T13:11:42;17.10;99.90
18408;DHT22;9330;52.210;21.174;2023-10-13T13:14:09;17.10;99.90
18408;DHT22;9330;52.210;21.174;2023-10-13T13:16:36;17.00;99.90
18408;DHT22;9330;52.210;21.174;2023-10-13T13:19:04;17.00;99.90
18408;DHT22;9330;52.210;21.174;2023-10-13T13:21:36;17.00;99.90
18408;DHT22;9330;52.210;21.174;2023-10-13T13:24:04;17.00;99.90
18408;DHT22;9330;52.210;21.174;2023-10-13T13:26:36;16.90;99.90
18408;DHT22;9330;52.210;21.174;2023-10-13T13:29:07;16.90;99.90
18408;DHT22;9330;52.210;21.174;2023-10-13T13:31:36;17.00;99.90
18408;DHT22;9330;52.210;21.174;2023-10-13T13:34:07;16.90;99.90
18408;DHT22;9330;52.210;21.174;2023-10-13T13:36:36;16.90;99.90
18408;DHT22;9330;52.210;21.174;2023-10-13T13:39:02;16.80;99.90
18408;DHT22;9330;52.210;21.174;2023-10-13T13:41:31;16.90;99.90
18408;DHT22;9330;52.210;21.174;2023-10-13T13:43:58;16.80;99.90
18408;DHT22;9330;52.210;21.174;2023-10-13T13:46:40;16.90;99.90
18408;DHT22;9330;52.210;21.174;2023-10-13T13:49:08;16.90;99.90
18408;DHT22;9330;52.210;21.174;2023-10-13T13:51:44;16.90;99.90
18408;DHT22;9330;52.210;21.174;2023-10-13T13:54:18;16.90;99.90
18408;DHT22;9330;52.210;21.174;2023-10-13T13:56:45;16.90;99.90
18408;DHT22;9330;52.210;21.174;2023-10-13T13:59:11;16.90;99.90
18408;DHT22;9330;52.210;21.174;2023-10-13T14:01:42;16.90;99.90
18408;DHT22;9330;52.210;21.174;2023-10-13T14:04:10;16.90;99.90
18408;DHT22;9330;52.210;21.174;2023-10-13T14:06:37;16.90;99.90
18408;DHT22;9330;52.210;21.174;2023-10-13T14:09:04;16.90;99.90
18408;DHT22;9330;52.210;21.174;2023-10-13T14:11:40;16.90;99.90
18408;DHT22;9330;52.210;21.174;2023-10-13T14:14:33;16.90;99.90
18408;DHT22;9330;52.210;21.174;2023-10-13T14:17:01;16.90;99.90
18408;DHT22;9330;52.210;21.174;2023-10-13T14:19:34;16.80;99.90
18408;DHT22;9330;52.210;21.174;2023-10-13T14:22:06;16.90;99.90
18408;DHT22;9330;52.210;21.174;2023-10-13T14:24:34;16.80;99.90
18408;DHT22;9330;52.210;21.174;2023-10-13T14:27:09;16.80;99.90
18408;DHT22;9330;52.210;21.174;2023-10-13T14:29:38;16.80;99.90
18408;DHT22;9330;52.210;21.174;2023-10-13T14:32:09;16.70;99.90
18408;DHT22;9330;52.210;21.174;2023-10-13T14:34:39;16.70;99.90
18408;DHT22;9330;52.210;21.174;2023-10-13T14:37:06;16.70;99.90
18408;DHT22;9330;52.210;21.174;2023-10-13T14:39:33;16.70;99.90
18408;DHT22;9330;52.210;21.174;2023-10-13T14:42:01;16.70;99.90
18408;DHT22;9330;52.210;21.174;2023-10-13T14:44:31;16.70;99.90
18408;DHT22;9330;52.210;21.174;2023-10-13T14:46:58;16.70;99.90
18408;DHT22;9330;52.210;21.174;2023-10-13T14:49:26;16.70;99.90
18408;DHT22;9330;52.210;21.174;2023-10-13T14:51:53;16.70;99.90
18408;DHT22;9330;52.210;21.174;2023-10-13T14:54:21;16.80;99.90
18408;DHT22;9330;52.210;21.174;2023-10-13T14:56:59;16.80;99.90
18408;DHT22;9330;52.210;21.174;2023-10-13T14:59:26;16.80;99.90
18408;DHT22;9330;52.210;21.174;2023-10-13T15:01:53;16.70;99.90
18408;DHT22;9330;52.210;21.174;2023-10-13T15:04:20;16.70;99.90
18408;DHT22;9330;52.210;21.174;2023-10-13T15:06:51;16.70;99.90
18408;DHT22;9330;52.210;21.174;2023-10-13T15:09:18;16.70;99.90
18408;DHT22;9330;52.210;21.174;2023-10-13T15:11:49;16.70;99.90
18408;DHT22;9330;52.210;21.174;2023-10-13T15:14:19;16.70;99.90
18408;DHT22;9330;52.210;21.174;2023-10-13T15:16:48;16.70;99.90
18408;DHT22;9330;52.210;21.174;2023-10-13T15:19:15;16.70;99.90
18408;DHT22;9330;52.210;21.174;2023-10-13T15:21:43;16.70;99.90
18408;DHT22;9330;52.210;21.174;2023-10-13T15:24:16;16.60;99.90
18408;DHT22;9330;52.210;21.174;2023-10-13T15:26:43;16.60;99.90
18408;DHT22;9330;52.210;21.174;2023-10-13T15:29:14;16.60;99.90
18408;DHT22;9330;52.210;21.174;2023-10-13T15:31:42;16.50;99.90
18408;DHT22;9330;52.210;21.174;2023-10-13T15:34:20;16.50;99.90
18408;DHT22;9330;52.210;21.174;2023-10-13T15:36:48;16.40;99.90
18408;DHT22;9330;52.210;21.174;2023-10-13T15:39:19;16.40;99.90
18408;DHT22;9330;52.210;21.174;2023-10-13T15:41:50;16.40;99.90
18408;DHT22;9330;52.210;21.174;2023-10-13T15:44:19;16.40;99.90
18408;DHT22;9330;52.210;21.174;2023-10-13T15:46:52;16.30;99.90
18408;DHT22;9330;52.210;21.174;2023-10-13T15:49:19;16.30;99.90
18408;DHT22;9330;52.210;21.174;2023-10-13T15:51:46;16.30;99.90
18408;DHT22;9330;52.210;21.174;2023-10-13T15:54:13;16.30;99.90
18408;DHT22;9330;52.210;21.174;2023-10-13T15:56:42;16.30;99.90
18408;DHT22;9330;52.210;21.174;2023-10-13T15:59:09;16.30;99.90
18408;DHT22;9330;52.210;21.174;2023-10-13T16:01:37;16.30;99.90
18408;DHT22;9330;52.210;21.174;2023-10-13T16:04:05;16.20;99.90
18408;DHT22;9330;52.210;21.174;2023-10-13T16:06:37;16.20;99.90
18408;DHT22;9330;52.210;21.174;2023-10-13T16:09:05;16.30;99.90
18408;DHT22;9330;52.210;21.174;2023-10-13T16:11:40;16.20;99.90
18408;DHT22;9330;52.210;21.174;2023-10-13T16:14:09;16.20;99.90
18408;DHT22;9330;52.210;21.174;2023-10-13T16:16:41;16.10;99.90
18408;DHT22;9330;52.210;21.174;2023-10-13T16:19:10;16.10;99.90
18408;DHT22;9330;52.210;21.174;2023-10-13T16:21:37;16.20;99.90